Charterhall, United Kingdom
Current Conditions -  °F | °C
As of 12:50 PM on Thursday 23 Oct 2014 (Local Time) from EGQM Reporting Station
Clear Clear  
Wind Chill: 59°   Ceiling: Unl
Heat Index: 59°   Visibility: 6mi
Dew Point: 50°   Wind: 22mph
Humidity: 72%   Direction: 220°SW
Pressure: 29.83"   Gusts: NA
Location:  55.7°N, 2.38°W
Report Text: EGQM 231150Z AUTO 22019KT 9999 NCD 15/10 Q1010
Loading
Personal Weather Stations






























Interactive Weather Map
Tropical Storm Tracking
New forecast layout! Learn more

10-Day Weather Forecast

Advertisements
Track Severe Weather on mobile